Terminal Aerodrome Forecast
Issued by NWS

Home | Current Version | Previous Version | Text Only | Print | Product List | Glossary On
Versions: 1 2 3 4 5 6 7 8 9 10 11 12 13 14 15 16
000
FTUS42 KTBW 021300 AAA
TAFPGD
TAF AMD
KPGD 021315Z 0213/0312 00000KT P6SM SCT120
     FM021800 31005KT P6SM VCTS SCT035CB BKN120
     FM030000 31004KT P6SM FEW035 SCT120 SCT250
     FM030300 VRB03KT P6SM SCT025 SCT250=

USA.gov is the U.S. government's official web portal to all federal, state and local government web resources and services.